createdAt,value
2018-02-21T00:00:08.043Z,999.09
2018-02-21T00:01:08.075Z,999.11
2018-02-21T00:02:08.103Z,999.14
2018-02-21T00:03:08.132Z,999.14
2018-02-21T00:04:08.182Z,999.15
2018-02-21T00:05:08.187Z,999.17
2018-02-21T00:06:08.222Z,999.14
2018-02-21T00:07:08.260Z,999.19
2018-02-21T00:08:08.275Z,999.18
2018-02-21T00:09:08.305Z,999.18
2018-02-21T00:10:08.336Z,999.17
2018-02-21T00:11:08.374Z,999.20
2018-02-21T00:12:08.393Z,999.20
2018-02-21T00:13:08.423Z,999.24
2018-02-21T00:14:08.457Z,999.20
2018-02-21T00:15:08.484Z,999.25
2018-02-21T00:16:08.510Z,999.28
2018-02-21T00:17:08.542Z,999.27
2018-02-21T00:18:08.567Z,999.24
2018-02-21T00:19:08.597Z,999.24
2018-02-21T00:20:08.626Z,999.22
2018-02-21T00:21:08.656Z,999.23
2018-02-21T00:22:08.686Z,999.27
2018-02-21T00:23:08.716Z,999.24
2018-02-21T00:24:08.745Z,999.22
2018-02-21T00:25:08.787Z,999.20
2018-02-21T00:26:08.805Z,999.21
2018-02-21T00:27:08.834Z,999.21
2018-02-21T00:28:08.866Z,999.19
2018-02-21T00:29:08.892Z,999.18
2018-02-21T00:30:08.931Z,999.16
2018-02-21T00:31:08.952Z,999.18
2018-02-21T00:32:08.978Z,999.17
2018-02-21T00:33:09.010Z,999.16
2018-02-21T00:34:09.035Z,999.18
2018-02-21T00:35:09.068Z,999.18
2018-02-21T00:36:09.096Z,999.16
2018-02-21T00:37:09.129Z,999.21
2018-02-21T00:38:09.156Z,999.22
2018-02-21T00:39:09.222Z,999.23
2018-02-21T00:40:09.216Z,999.18
2018-02-21T00:41:09.242Z,999.27
2018-02-21T00:42:09.270Z,999.26
2018-02-21T00:43:09.303Z,999.26
2018-02-21T00:44:09.329Z,999.26
2018-02-21T00:45:09.361Z,999.24
2018-02-21T00:46:09.388Z,999.30
2018-02-21T00:47:09.433Z,999.31
2018-02-21T00:48:09.449Z,999.32
2018-02-21T00:49:09.477Z,999.29
2018-02-21T00:50:09.503Z,999.33
2018-02-21T00:51:09.541Z,999.31
2018-02-21T00:52:09.586Z,999.36
2018-02-21T00:53:09.590Z,999.35
2018-02-21T00:54:09.624Z,999.36
2018-02-21T00:55:09.651Z,999.35
2018-02-21T00:56:09.679Z,999.38
2018-02-21T00:57:09.708Z,999.36
2018-02-21T00:58:09.740Z,999.35
2018-02-21T00:59:09.769Z,999.41
2018-02-21T01:00:09.795Z,999.45
2018-02-21T01:01:09.825Z,999.45
2018-02-21T01:02:09.853Z,999.42
2018-02-21T01:03:09.880Z,999.42
2018-02-21T01:04:09.914Z,999.45
2018-02-21T01:05:09.938Z,999.45
2018-02-21T01:06:09.968Z,999.42
2018-02-21T01:07:10.001Z,999.44
2018-02-21T01:08:10.026Z,999.48
2018-02-21T01:09:10.054Z,999.47
2018-02-21T01:10:10.084Z,999.50
2018-02-21T01:11:10.126Z,999.52
2018-02-21T01:12:10.144Z,999.55
2018-02-21T01:13:10.172Z,999.56
2018-02-21T01:14:10.200Z,999.59
2018-02-21T01:15:10.232Z,999.65
2018-02-21T01:16:10.259Z,999.63
2018-02-21T01:17:10.284Z,999.72
2018-02-21T01:18:10.314Z,999.70
2018-02-21T01:19:10.344Z,999.72
2018-02-21T01:20:10.371Z,999.75
2018-02-21T01:21:10.397Z,999.78
2018-02-21T01:22:10.428Z,999.77
2018-02-21T01:23:10.454Z,999.79
2018-02-21T01:24:10.485Z,999.79
2018-02-21T01:25:10.513Z,999.83
2018-02-21T01:26:10.543Z,999.79
2018-02-21T01:27:10.572Z,999.82
2018-02-21T01:28:10.597Z,999.85
2018-02-21T01:29:10.628Z,999.84
2018-02-21T01:30:10.725Z,999.85
2018-02-21T01:31:10.684Z,999.89
2018-02-21T01:32:10.712Z,999.91
2018-02-21T01:33:10.742Z,999.89
2018-02-21T01:34:10.779Z,999.86
2018-02-21T01:35:10.798Z,999.89
2018-02-21T01:36:10.827Z,999.88
2018-02-21T01:37:10.925Z,999.92
2018-02-21T01:38:10.884Z,999.90
2018-02-21T01:39:10.929Z,999.94
2018-02-21T01:40:10.946Z,999.94
2018-02-21T01:41:10.969Z,999.89
2018-02-21T01:42:11.000Z,999.94
2018-02-21T01:43:11.035Z,999.92
2018-02-21T01:44:11.055Z,999.90
2018-02-21T01:45:11.089Z,999.85
2018-02-21T01:46:11.116Z,999.83
2018-02-21T01:47:11.148Z,999.82
2018-02-21T01:48:11.170Z,999.79
2018-02-21T01:49:11.200Z,999.74
2018-02-21T01:50:11.239Z,999.74
2018-02-21T01:51:11.258Z,999.75
2018-02-21T01:52:11.286Z,999.72
2018-02-21T01:53:11.316Z,999.78
2018-02-21T01:54:11.425Z,999.76
2018-02-21T01:55:11.371Z,999.75
2018-02-21T01:56:11.406Z,999.76
2018-02-21T01:57:11.429Z,999.78
2018-02-21T01:58:11.458Z,999.82
2018-02-21T01:59:11.487Z,999.80
2018-02-21T02:00:11.511Z,999.81
2018-02-21T02:01:11.542Z,999.84
2018-02-21T02:02:11.571Z,999.81
2018-02-21T02:03:11.598Z,999.82
2018-02-21T02:04:11.629Z,999.85
2018-02-21T02:05:11.656Z,999.85
2018-02-21T02:06:11.685Z,999.83
2018-02-21T02:07:11.711Z,999.85
2018-02-21T02:08:11.742Z,999.90
2018-02-21T02:09:11.767Z,999.90
2018-02-21T02:10:11.798Z,999.91
2018-02-21T02:11:11.888Z,999.93
2018-02-21T02:12:11.854Z,999.94
2018-02-21T02:13:11.882Z,999.95
2018-02-21T02:14:11.910Z,999.94
2018-02-21T02:15:11.940Z,999.98
2018-02-21T02:16:11.977Z,999.99
2018-02-21T02:17:12.000Z,999.98
2018-02-21T02:18:12.024Z,999.96
2018-02-21T02:19:12.051Z,1000.03
2018-02-21T02:20:12.082Z,1000.01
2018-02-21T02:21:12.109Z,1000.00
2018-02-21T02:22:12.140Z,1000.03
2018-02-21T02:23:12.221Z,1000.02
2018-02-21T02:24:12.196Z,1000.01
2018-02-21T02:25:12.225Z,1000.06
2018-02-21T02:26:12.253Z,1000.06
2018-02-21T02:27:12.282Z,1000.09
2018-02-21T02:28:12.310Z,1000.08
2018-02-21T02:29:12.335Z,1000.11
2018-02-21T02:30:12.393Z,1000.11
2018-02-21T02:31:12.395Z,1000.08
2018-02-21T02:32:12.425Z,1000.09
2018-02-21T02:33:12.457Z,1000.06
2018-02-21T02:34:12.482Z,1000.09
2018-02-21T02:35:12.507Z,1000.05
2018-02-21T02:36:12.536Z,1000.09
2018-02-21T02:37:12.563Z,1000.10
2018-02-21T02:38:12.593Z,1000.09
2018-02-21T02:39:12.621Z,1000.08
2018-02-21T02:40:12.653Z,1000.04
2018-02-21T02:41:12.676Z,1000.06
2018-02-21T02:42:12.705Z,1000.07
2018-02-21T02:43:12.733Z,1000.05
2018-02-21T02:44:12.762Z,1000.05
2018-02-21T02:45:12.792Z,1000.06
2018-02-21T02:46:12.818Z,1000.01
2018-02-21T02:47:12.962Z,1000.08
2018-02-21T02:48:12.872Z,1000.09
2018-02-21T02:49:12.903Z,1000.11
2018-02-21T02:50:12.928Z,1000.12
2018-02-21T02:51:12.958Z,1000.15
2018-02-21T02:52:12.985Z,1000.20
2018-02-21T02:53:13.014Z,1000.20
2018-02-21T02:54:13.043Z,1000.22
2018-02-21T02:55:13.073Z,1000.23
2018-02-21T02:56:13.096Z,1000.26
2018-02-21T02:57:13.125Z,1000.22
2018-02-21T02:58:13.155Z,1000.27
2018-02-21T02:59:13.199Z,1000.22
2018-02-21T03:00:13.218Z,1000.23
2018-02-21T03:01:13.240Z,1000.23
2018-02-21T03:02:13.267Z,1000.20
2018-02-21T03:03:13.295Z,1000.17
2018-02-21T03:04:13.345Z,1000.16
2018-02-21T03:05:13.350Z,1000.22
2018-02-21T03:06:13.379Z,1000.23
2018-02-21T03:07:13.416Z,1000.19
2018-02-21T03:08:13.434Z,1000.20
2018-02-21T03:09:13.465Z,1000.19
2018-02-21T03:10:13.497Z,1000.22
2018-02-21T03:11:13.526Z,1000.17
2018-02-21T03:12:13.549Z,1000.21
2018-02-21T03:13:13.578Z,1000.20
2018-02-21T03:14:13.607Z,1000.17
2018-02-21T03:15:13.638Z,1000.19
2018-02-21T03:16:13.712Z,1000.21
2018-02-21T03:17:13.690Z,1000.18
2018-02-21T03:18:13.719Z,1000.23
2018-02-21T03:19:13.750Z,1000.23
2018-02-21T03:20:13.772Z,1000.26
2018-02-21T03:21:13.802Z,1000.22
2018-02-21T03:22:13.830Z,1000.19
2018-02-21T03:23:13.868Z,1000.21
2018-02-21T03:24:13.888Z,1000.21
2018-02-21T03:25:13.913Z,1000.21
2018-02-21T03:26:13.942Z,1000.19
2018-02-21T03:27:13.972Z,1000.15
2018-02-21T03:28:13.997Z,1000.11
2018-02-21T03:29:14.038Z,1000.17
2018-02-21T03:30:14.054Z,1000.12
2018-02-21T03:31:14.084Z,1000.12
2018-02-21T03:32:14.109Z,1000.12
2018-02-21T03:33:14.191Z,1000.12
2018-02-21T03:34:14.167Z,1000.12
2018-02-21T03:35:14.197Z,1000.08
2018-02-21T03:36:14.221Z,1000.12
2018-02-21T03:37:14.249Z,1000.14
2018-02-21T03:38:14.279Z,1000.18
2018-02-21T03:39:14.309Z,1000.17
2018-02-21T03:40:14.346Z,1000.17
2018-02-21T03:41:14.363Z,1000.17
2018-02-21T03:42:14.390Z,1000.18
2018-02-21T03:43:14.420Z,1000.18
2018-02-21T03:44:14.445Z,1000.19
2018-02-21T03:45:14.483Z,1000.19
2018-02-21T03:46:14.502Z,1000.21
2018-02-21T03:47:14.532Z,1000.16
2018-02-21T03:48:14.558Z,1000.22
2018-02-21T03:49:14.586Z,1000.22
2018-02-21T03:50:14.622Z,1000.22
2018-02-21T03:51:14.645Z,1000.22
2018-02-21T03:52:14.671Z,1000.23
2018-02-21T03:53:14.702Z,1000.19
2018-02-21T03:54:14.726Z,1000.24
2018-02-21T03:55:14.754Z,1000.23
2018-02-21T03:56:14.785Z,1000.22
2018-02-21T03:57:14.911Z,1000.28
2018-02-21T03:58:14.836Z,1000.24
2018-02-21T03:59:14.869Z,1000.23
2018-02-21T04:00:14.894Z,1000.21
2018-02-21T04:01:14.923Z,1000.20
2018-02-21T04:02:14.952Z,1000.23
2018-02-21T04:03:14.979Z,1000.18
2018-02-21T04:04:15.013Z,1000.18
2018-02-21T04:05:15.032Z,1000.20
2018-02-21T04:06:15.063Z,1000.20
2018-02-21T04:07:15.092Z,1000.22
2018-02-21T04:08:15.116Z,1000.26
2018-02-21T04:09:15.148Z,1000.23
2018-02-21T04:10:15.172Z,1000.25
2018-02-21T04:11:15.202Z,1000.28
2018-02-21T04:12:15.230Z,1000.29
2018-02-21T04:13:15.256Z,1000.29
2018-02-21T04:14:15.288Z,1000.31
2018-02-21T04:15:15.317Z,1000.33
2018-02-21T04:16:15.338Z,1000.31
2018-02-21T04:17:15.366Z,1000.34
2018-02-21T04:18:15.398Z,1000.30
2018-02-21T04:19:15.424Z,1000.31
2018-02-21T04:20:15.453Z,1000.29
2018-02-21T04:21:15.479Z,1000.31
2018-02-21T04:22:15.507Z,1000.32
2018-02-21T04:23:15.540Z,1000.32
2018-02-21T04:24:15.564Z,1000.31
2018-02-21T04:25:15.589Z,1000.35
2018-02-21T04:26:15.672Z,1000.31
2018-02-21T04:27:15.646Z,1000.30
2018-02-21T04:28:15.674Z,1000.32
2018-02-21T04:29:15.700Z,1000.32
2018-02-21T04:30:15.732Z,1000.31
2018-02-21T04:31:15.759Z,1000.30
2018-02-21T04:32:15.786Z,1000.31
2018-02-21T04:33:15.817Z,1000.28
2018-02-21T04:34:15.842Z,1000.26
2018-02-21T04:35:15.870Z,1000.27
2018-02-21T04:36:15.905Z,1000.23
2018-02-21T04:37:15.927Z,1000.16
2018-02-21T04:38:15.959Z,1000.17
2018-02-21T04:39:15.982Z,1000.15
2018-02-21T04:40:16.008Z,1000.11
2018-02-21T04:41:16.036Z,1000.08
2018-02-21T04:42:16.068Z,1000.10
2018-02-21T04:43:16.204Z,1000.07
2018-02-21T04:44:16.120Z,1000.08
2018-02-21T04:45:16.149Z,1000.11
2018-02-21T04:46:16.178Z,1000.11
2018-02-21T04:47:16.202Z,1000.10
2018-02-21T04:48:16.240Z,1000.09
2018-02-21T04:49:16.258Z,1000.14
2018-02-21T04:50:16.291Z,1000.14
2018-02-21T04:51:16.326Z,1000.18
2018-02-21T04:52:16.339Z,1000.15
2018-02-21T04:53:16.368Z,1000.11
2018-02-21T04:54:16.399Z,1000.15
2018-02-21T04:55:16.426Z,1000.14
2018-02-21T04:56:16.451Z,1000.14
2018-02-21T04:57:16.478Z,1000.16
2018-02-21T04:58:16.508Z,1000.14
2018-02-21T04:59:16.533Z,1000.12
2018-02-21T05:00:16.561Z,1000.12
2018-02-21T05:01:16.590Z,1000.07
2018-02-21T05:02:16.619Z,1000.10
2018-02-21T05:03:16.651Z,1000.10
2018-02-21T05:04:16.671Z,1000.10
2018-02-21T05:05:16.753Z,1000.13
2018-02-21T05:06:16.732Z,1000.13
2018-02-21T05:07:16.761Z,1000.12
2018-02-21T05:08:16.786Z,1000.09
2018-02-21T05:09:16.811Z,1000.14
2018-02-21T05:10:16.840Z,1000.12
2018-02-21T05:11:16.871Z,1000.12
2018-02-21T05:12:16.897Z,1000.13
2018-02-21T05:13:16.924Z,1000.13
2018-02-21T05:14:16.966Z,1000.15
2018-02-21T05:15:17.031Z,1000.12
2018-02-21T05:16:17.007Z,1000.16
2018-02-21T05:17:17.033Z,1000.19
2018-02-21T05:18:17.064Z,1000.18
2018-02-21T05:19:17.092Z,1000.23
2018-02-21T05:20:17.118Z,1000.28
2018-02-21T05:21:17.145Z,1000.31
2018-02-21T05:22:17.227Z,1000.39
2018-02-21T05:23:17.202Z,1000.35
2018-02-21T05:24:17.228Z,1000.40
2018-02-21T05:25:17.260Z,1000.43
2018-02-21T05:26:17.301Z,1000.40
2018-02-21T05:27:17.313Z,1000.44
2018-02-21T05:28:17.339Z,1000.46
2018-02-21T05:29:17.382Z,1000.45
2018-02-21T05:30:17.394Z,1000.46
2018-02-21T05:31:17.423Z,1000.38
2018-02-21T05:32:17.449Z,1000.35
2018-02-21T05:33:17.478Z,1000.36
2018-02-21T05:34:17.506Z,1000.32
2018-02-21T05:35:17.535Z,1000.32
2018-02-21T05:36:17.562Z,1000.31
2018-02-21T05:37:17.636Z,1000.38
2018-02-21T05:38:17.613Z,1000.35
2018-02-21T05:39:17.644Z,1000.36
2018-02-21T05:40:17.670Z,1000.34
2018-02-21T05:41:17.699Z,1000.34
2018-02-21T05:42:17.727Z,1000.31
2018-02-21T05:43:17.755Z,1000.35
2018-02-21T05:44:17.780Z,1000.35
2018-02-21T05:45:17.819Z,1000.34
2018-02-21T05:46:17.843Z,1000.31
2018-02-21T05:47:17.865Z,1000.35
2018-02-21T05:48:17.916Z,1000.32
2018-02-21T05:49:17.916Z,1000.33
2018-02-21T05:50:17.949Z,1000.34
2018-02-21T05:51:17.976Z,1000.33
2018-02-21T05:52:18.001Z,1000.36
2018-02-21T05:53:18.029Z,1000.40
2018-02-21T05:54:18.058Z,1000.42
2018-02-21T05:55:18.085Z,1000.48
2018-02-21T05:56:18.112Z,1000.50
2018-02-21T05:57:18.141Z,1000.54
2018-02-21T05:58:18.178Z,1000.60
2018-02-21T05:59:18.196Z,1000.63
2018-02-21T06:00:18.256Z,1000.64
2018-02-21T06:01:18.253Z,1000.65
2018-02-21T06:02:18.292Z,1000.65
2018-02-21T06:03:18.309Z,1000.72
2018-02-21T06:04:18.334Z,1000.72
2018-02-21T06:05:18.453Z,1000.74
2018-02-21T06:06:18.389Z,1000.69
2018-02-21T06:07:18.417Z,1000.69
2018-02-21T06:08:18.449Z,1000.68
2018-02-21T06:09:18.472Z,1000.68
2018-02-21T06:10:18.497Z,1000.65
2018-02-21T06:11:18.541Z,1000.65
2018-02-21T06:12:18.562Z,1000.64
2018-02-21T06:13:18.581Z,1000.63
2018-02-21T06:14:18.609Z,1000.63
2018-02-21T06:15:18.690Z,1000.63
2018-02-21T06:16:18.673Z,1000.60
2018-02-21T06:17:18.692Z,1000.59
2018-02-21T06:18:18.719Z,1000.59
2018-02-21T06:19:18.750Z,1000.63
2018-02-21T06:20:18.774Z,1000.63
2018-02-21T06:21:18.801Z,1000.62
2018-02-21T06:22:18.859Z,1000.63
2018-02-21T06:23:18.862Z,1000.63
2018-02-21T06:24:18.884Z,1000.64
2018-02-21T06:25:18.912Z,1000.63
2018-02-21T06:26:18.941Z,1000.59
2018-02-21T06:27:18.970Z,1000.63
2018-02-21T06:28:18.996Z,1000.60
2018-02-21T06:29:19.023Z,1000.58
2018-02-21T06:30:19.051Z,1000.58
2018-02-21T06:31:19.080Z,1000.60
2018-02-21T06:32:19.109Z,1000.57
2018-02-21T06:33:19.131Z,1000.56
2018-02-21T06:34:19.177Z,1000.54
2018-02-21T06:35:19.191Z,1000.54
2018-02-21T06:36:19.214Z,1000.52
2018-02-21T06:37:19.247Z,1000.52
2018-02-21T06:38:19.272Z,1000.55
2018-02-21T06:39:19.297Z,1000.56
2018-02-21T06:40:19.339Z,1000.57
2018-02-21T06:41:19.353Z,1000.58
2018-02-21T06:42:19.382Z,1000.56
2018-02-21T06:43:19.408Z,1000.53
2018-02-21T06:44:19.437Z,1000.56
2018-02-21T06:45:19.464Z,1000.60
2018-02-21T06:46:19.494Z,1000.66
2018-02-21T06:47:19.525Z,1000.61
2018-02-21T06:48:19.546Z,1000.66
2018-02-21T06:49:19.573Z,1000.66
2018-02-21T06:50:19.604Z,1000.71
2018-02-21T06:51:19.734Z,1000.75
2018-02-21T06:52:19.655Z,1000.77
2018-02-21T06:53:19.685Z,1000.73
2018-02-21T06:54:19.712Z,1000.77
2018-02-21T06:55:19.738Z,1000.81
2018-02-21T06:56:19.766Z,1000.82
2018-02-21T06:57:19.795Z,1000.82
2018-02-21T06:58:19.821Z,1000.86
2018-02-21T06:59:19.850Z,1000.92
2018-02-21T07:00:19.880Z,1000.90
2018-02-21T07:01:19.904Z,1000.98
2018-02-21T07:02:19.937Z,1001.00
2018-02-21T07:03:19.959Z,1001.04
2018-02-21T07:04:19.995Z,1001.03
2018-02-21T07:05:20.015Z,1001.00
2018-02-21T07:06:20.047Z,1000.97
2018-02-21T07:07:20.071Z,1000.98
2018-02-21T07:08:20.150Z,1000.90
2018-02-21T07:09:20.126Z,1000.86
2018-02-21T07:10:20.155Z,1000.87
2018-02-21T07:11:20.182Z,1000.85
2018-02-21T07:12:20.209Z,1000.85
2018-02-21T07:13:20.237Z,1000.85
2018-02-21T07:14:20.266Z,1000.88
2018-02-21T07:15:20.324Z,1000.94
2018-02-21T07:16:20.322Z,1000.95
2018-02-21T07:17:20.350Z,1000.98
2018-02-21T07:18:20.376Z,1000.99
2018-02-21T07:19:20.404Z,1001.02
2018-02-21T07:20:20.430Z,1001.01
2018-02-21T07:21:20.463Z,1001.08
2018-02-21T07:22:20.488Z,1001.06
2018-02-21T07:23:20.517Z,1001.02
2018-02-21T07:24:20.544Z,1001.02
2018-02-21T07:25:20.574Z,1001.04
2018-02-21T07:26:20.599Z,1001.02
2018-02-21T07:27:20.630Z,1001.02
2018-02-21T07:28:20.670Z,1001.03
2018-02-21T07:29:20.681Z,1001.06
2018-02-21T07:30:20.712Z,1001.11
2018-02-21T07:31:20.738Z,1001.14
2018-02-21T07:32:20.771Z,1001.19
2018-02-21T07:33:20.795Z,1001.22
2018-02-21T07:34:20.827Z,1001.26
2018-02-21T07:35:20.852Z,1001.35
2018-02-21T07:36:20.880Z,1001.40
2018-02-21T07:37:20.916Z,1001.42
2018-02-21T07:38:20.936Z,1001.44
2018-02-21T07:39:20.971Z,1001.49
2018-02-21T07:40:20.991Z,1001.47
2018-02-21T07:41:21.021Z,1001.46
2018-02-21T07:42:21.051Z,1001.45
2018-02-21T07:43:21.080Z,1001.48
2018-02-21T07:44:21.170Z,1001.50
2018-02-21T07:45:21.156Z,1001.50
2018-02-21T07:46:21.161Z,1001.50
2018-02-21T07:47:21.191Z,1001.52
2018-02-21T07:48:21.235Z,1001.49
2018-02-21T07:49:21.250Z,1001.49
2018-02-21T07:50:21.276Z,1001.49
2018-02-21T07:51:21.301Z,1001.46
2018-02-21T07:52:21.332Z,1001.50
2018-02-21T07:53:21.362Z,1001.49
2018-02-21T07:54:21.386Z,1001.53
2018-02-21T07:55:21.418Z,1001.57
2018-02-21T07:56:21.442Z,1001.55
2018-02-21T07:57:21.532Z,1001.56
2018-02-21T07:58:21.503Z,1001.60
2018-02-21T07:59:21.528Z,1001.63
2018-02-21T08:00:21.554Z,1001.62
2018-02-21T08:01:21.601Z,1001.59
2018-02-21T08:02:21.611Z,1001.61
2018-02-21T08:03:21.642Z,1001.63
2018-02-21T08:04:21.667Z,1001.69
2018-02-21T08:05:21.699Z,1001.70
2018-02-21T08:06:21.726Z,1001.67
2018-02-21T08:07:21.756Z,1001.70
2018-02-21T08:08:21.790Z,1001.71
2018-02-21T08:09:21.813Z,1001.69
2018-02-21T08:10:21.840Z,1001.77
2018-02-21T08:11:21.872Z,1001.71
2018-02-21T08:12:21.895Z,1001.72
2018-02-21T08:13:21.924Z,1001.70
2018-02-21T08:14:21.954Z,1001.64
2018-02-21T08:15:21.987Z,1001.64
2018-02-21T08:16:22.010Z,1001.65
2018-02-21T08:17:22.040Z,1001.64
2018-02-21T08:18:22.071Z,1001.68
2018-02-21T08:19:22.109Z,1001.62
2018-02-21T08:20:22.125Z,1001.64
2018-02-21T08:21:22.155Z,1001.68
2018-02-21T08:22:22.180Z,1001.74
2018-02-21T08:23:22.219Z,1001.72
2018-02-21T08:24:22.239Z,1001.64
2018-02-21T08:25:22.266Z,1001.73
2018-02-21T08:26:22.296Z,1001.68
2018-02-21T08:27:22.324Z,1001.69
2018-02-21T08:28:22.394Z,1001.70
2018-02-21T08:29:22.383Z,1001.77
2018-02-21T08:30:22.415Z,1001.79
2018-02-21T08:31:22.439Z,1001.81
2018-02-21T08:32:22.466Z,1001.87
2018-02-21T08:33:22.497Z,1001.84
2018-02-21T08:34:22.528Z,1001.78
2018-02-21T08:35:22.552Z,1001.81
2018-02-21T08:36:22.578Z,1001.79
2018-02-21T08:37:22.686Z,1001.78
2018-02-21T08:38:22.645Z,1001.76
2018-02-21T08:39:22.667Z,1001.77
2018-02-21T08:40:22.697Z,1001.76
2018-02-21T08:41:22.723Z,1001.79
2018-02-21T08:42:22.752Z,1001.79
2018-02-21T08:43:22.781Z,1001.82
2018-02-21T08:44:22.812Z,1001.79
2018-02-21T08:45:22.840Z,1001.76
2018-02-21T08:46:22.868Z,1001.76
2018-02-21T08:47:22.900Z,1001.74
2018-02-21T08:48:22.930Z,1001.75
2018-02-21T08:49:22.956Z,1001.72
2018-02-21T08:50:22.981Z,1001.75
2018-02-21T08:51:23.013Z,1001.70
2018-02-21T08:52:23.040Z,1001.74
2018-02-21T08:53:23.070Z,1001.74
2018-02-21T08:54:23.149Z,1001.72
2018-02-21T08:55:23.124Z,1001.77
2018-02-21T08:56:23.155Z,1001.76
2018-02-21T08:57:23.183Z,1001.77
2018-02-21T08:58:23.215Z,1001.75
2018-02-21T08:59:23.244Z,1001.75
2018-02-21T09:00:23.271Z,1001.77
2018-02-21T09:01:23.397Z,1001.81
2018-02-21T09:02:23.335Z,1001.76
2018-02-21T09:03:23.362Z,1001.77
2018-02-21T09:04:23.384Z,1001.78
2018-02-21T09:05:23.428Z,1001.74
2018-02-21T09:06:23.445Z,1001.72
2018-02-21T09:07:23.473Z,1001.69
2018-02-21T09:08:23.502Z,1001.70
2018-02-21T09:09:23.527Z,1001.72
2018-02-21T09:10:23.559Z,1001.67
2018-02-21T09:11:23.637Z,1001.70
2018-02-21T09:12:23.616Z,1001.66
2018-02-21T09:13:23.643Z,1001.68
2018-02-21T09:14:23.677Z,1001.64
2018-02-21T09:15:23.702Z,1001.60
2018-02-21T09:16:23.726Z,1001.56
2018-02-21T09:17:23.758Z,1001.58
2018-02-21T09:18:23.785Z,1001.54
2018-02-21T09:19:23.816Z,1001.55
2018-02-21T09:20:23.846Z,1001.60
2018-02-21T09:21:23.890Z,1001.60
2018-02-21T09:22:23.910Z,1001.64
2018-02-21T09:23:23.934Z,1001.59
2018-02-21T09:24:23.958Z,1001.66
2018-02-21T09:25:23.988Z,1001.69
2018-02-21T09:26:24.016Z,1001.66
2018-02-21T09:27:24.046Z,1001.67
2018-02-21T09:28:24.074Z,1001.58
2018-02-21T09:29:24.113Z,1001.61
2018-02-21T09:30:24.244Z,1001.57
2018-02-21T09:31:24.164Z,1001.55
2018-02-21T09:32:24.189Z,1001.50
2018-02-21T09:33:24.218Z,1001.53
2018-02-21T09:34:24.255Z,1001.54
2018-02-21T09:35:24.277Z,1001.57
2018-02-21T09:36:24.305Z,1001.59
2018-02-21T09:37:24.336Z,1001.52
2018-02-21T09:38:24.379Z,1001.60
2018-02-21T09:39:24.394Z,1001.63
2018-02-21T09:40:24.425Z,1001.61
2018-02-21T09:41:24.450Z,1001.62
2018-02-21T09:42:24.480Z,1001.62
2018-02-21T09:43:24.520Z,1001.67
2018-02-21T09:44:24.539Z,1001.73
2018-02-21T09:45:24.569Z,1001.66
2018-02-21T09:46:24.597Z,1001.70
2018-02-21T09:47:24.636Z,1001.74
2018-02-21T09:48:24.657Z,1001.67
2018-02-21T09:49:24.690Z,1001.70
2018-02-21T09:50:24.719Z,1001.62
2018-02-21T09:51:24.792Z,1001.58
2018-02-21T09:52:24.773Z,1001.51
2018-02-21T09:53:24.803Z,1001.53
2018-02-21T09:54:24.892Z,1001.47
2018-02-21T09:55:24.859Z,1001.48
2018-02-21T09:56:24.887Z,1001.49
2018-02-21T09:57:24.917Z,1001.51
2018-02-21T09:58:24.946Z,1001.44
2018-02-21T09:59:24.978Z,1001.47
2018-02-21T10:00:25.009Z,1001.42
2018-02-21T10:01:25.038Z,1001.39
2018-02-21T10:02:25.063Z,1001.37
2018-02-21T10:03:25.102Z,1001.34
2018-02-21T10:04:25.121Z,1001.30
2018-02-21T10:05:25.154Z,1001.32
2018-02-21T10:06:25.329Z,1001.31
2018-02-21T10:07:25.213Z,1001.33
2018-02-21T10:08:25.240Z,1001.33
2018-02-21T10:09:25.269Z,1001.38
2018-02-21T10:10:25.300Z,1001.42
2018-02-21T10:11:25.330Z,1001.45
2018-02-21T10:12:25.356Z,1001.43
2018-02-21T10:13:25.392Z,1001.47
2018-02-21T10:14:25.424Z,1001.51
2018-02-21T10:15:25.444Z,1001.48
2018-02-21T10:16:25.537Z,1001.47
2018-02-21T10:17:25.501Z,1001.42
2018-02-21T10:18:25.533Z,1001.47
2018-02-21T10:19:25.559Z,1001.47
2018-02-21T10:20:25.618Z,1001.47
2018-02-21T10:21:25.620Z,1001.45
2018-02-21T10:22:25.651Z,1001.45
2018-02-21T10:23:25.701Z,1001.47
2018-02-21T10:24:25.713Z,1001.51
2018-02-21T10:25:25.748Z,1001.48
2018-02-21T10:26:25.774Z,1001.49
2018-02-21T10:27:25.796Z,1001.50
2018-02-21T10:28:25.827Z,1001.49
2018-02-21T10:29:25.856Z,1001.50
2018-02-21T10:30:25.888Z,1001.49
2018-02-21T10:31:25.914Z,1001.54
2018-02-21T10:32:25.943Z,1001.46
2018-02-21T10:33:25.973Z,1001.49
2018-02-21T10:34:26.004Z,1001.49
2018-02-21T10:35:26.034Z,1001.52
2018-02-21T10:36:26.065Z,1001.48
2018-02-21T10:37:26.096Z,1001.45
2018-02-21T10:38:26.122Z,1001.41
2018-02-21T10:39:26.153Z,1001.38
2018-02-21T10:40:26.180Z,1001.46
2018-02-21T10:41:26.213Z,1001.41
2018-02-21T10:42:26.243Z,1001.39
2018-02-21T10:43:26.270Z,1001.36
2018-02-21T10:44:26.299Z,1001.35
2018-02-21T10:45:26.330Z,1001.34
2018-02-21T10:46:26.359Z,1001.40
2018-02-21T10:47:26.493Z,1001.28
2018-02-21T10:48:26.424Z,1001.30
2018-02-21T10:49:26.449Z,1001.36
2018-02-21T10:50:26.479Z,1001.34
2018-02-21T10:51:26.512Z,1001.34
2018-02-21T10:52:26.537Z,1001.31
2018-02-21T10:53:26.567Z,1001.32
2018-02-21T10:54:26.670Z,1001.33
2018-02-21T10:55:26.630Z,1001.35
2018-02-21T10:56:26.657Z,1001.43
2018-02-21T10:57:26.687Z,1001.40
2018-02-21T10:58:26.715Z,1001.36
2018-02-21T10:59:26.746Z,1001.32
2018-02-21T11:00:26.776Z,1001.36
2018-02-21T11:01:26.810Z,1001.30
2018-02-21T11:02:26.836Z,1001.34
2018-02-21T11:03:26.866Z,1001.30
2018-02-21T11:04:26.896Z,1001.34
2018-02-21T11:05:26.929Z,1001.32
2018-02-21T11:06:27.046Z,1001.32
2018-02-21T11:07:26.985Z,1001.41
2018-02-21T11:08:27.023Z,1001.35
2018-02-21T11:09:27.058Z,1001.37
2018-02-21T11:10:27.076Z,1001.31
2018-02-21T11:11:27.136Z,1001.27
2018-02-21T11:12:27.132Z,1001.34
2018-02-21T11:13:27.162Z,1001.21
2018-02-21T11:14:27.201Z,1001.29
2018-02-21T11:15:27.222Z,1001.28
2018-02-21T11:16:27.252Z,1001.27
2018-02-21T11:17:27.282Z,1001.33
2018-02-21T11:18:27.312Z,1001.29
2018-02-21T11:19:27.348Z,1001.27
2018-02-21T11:20:27.373Z,1001.21
2018-02-21T11:21:27.404Z,1001.22
2018-02-21T11:22:27.433Z,1001.25
2018-02-21T11:23:27.489Z,1001.21
2018-02-21T11:24:27.492Z,1001.22
2018-02-21T11:25:27.522Z,1001.15
2018-02-21T11:26:27.554Z,1001.21
2018-02-21T11:27:27.585Z,1001.22
2018-02-21T11:28:27.612Z,1001.19
2018-02-21T11:29:27.642Z,1001.19
2018-02-21T11:30:27.798Z,1001.14
2018-02-21T11:31:27.709Z,1001.13
2018-02-21T11:32:27.733Z,1001.18
2018-02-21T11:33:27.762Z,1001.18
2018-02-21T11:34:27.791Z,1001.18
2018-02-21T11:35:27.823Z,1001.18
2018-02-21T11:36:27.854Z,1001.18
2018-02-21T11:37:27.886Z,1001.25
2018-02-21T11:38:27.911Z,1001.29
2018-02-21T11:39:27.943Z,1001.14
2018-02-21T11:40:27.977Z,1001.09
2018-02-21T11:41:28.003Z,1001.18
2018-02-21T11:42:28.034Z,1001.17
2018-02-21T11:43:28.065Z,1001.10
2018-02-21T11:44:28.092Z,1001.10
2018-02-21T11:45:28.126Z,1001.12
2018-02-21T11:46:28.154Z,1001.14
2018-02-21T11:47:28.235Z,1001.11
2018-02-21T11:48:28.212Z,1001.10
2018-02-21T11:49:28.242Z,1001.12
2018-02-21T11:50:28.274Z,1001.13
2018-02-21T11:51:28.302Z,1001.13
2018-02-21T11:52:28.335Z,1001.11
2018-02-21T11:53:28.361Z,1001.11
2018-02-21T11:54:28.394Z,1001.04
2018-02-21T11:55:28.422Z,1001.17
2018-02-21T11:56:28.452Z,1001.10
2018-02-21T11:57:28.482Z,1001.07
2018-02-21T11:58:28.513Z,1001.03
2018-02-21T11:59:28.548Z,1001.00
2018-02-21T12:00:28.573Z,1000.96
2018-02-21T12:01:28.604Z,1000.99
2018-02-21T12:02:28.647Z,1000.95
2018-02-21T12:03:28.663Z,1000.93
2018-02-21T12:04:28.693Z,1000.87
2018-02-21T12:05:28.737Z,1000.96
2018-02-21T12:06:28.853Z,1000.97
2018-02-21T12:07:28.800Z,1000.98
2018-02-21T12:08:28.814Z,1001.02
2018-02-21T12:09:28.844Z,1000.98
2018-02-21T12:10:28.889Z,1001.04